PWSweather.com
Personal Weather Stations
Station Observations
SPARKSRC
St. Petersburg, FL 33716

St. Petersburg, FL 33716

Lat: 27.876101, Lon: -82.657194

Elevation: 13

Station Type: Zephyr PWS-1000TD

Latest ConditionsUpdated 6:10:01 PM EDT Friday, Jun 24, 2016
Currently Today's Max Today's Min Today's Average
Temperature 92.7°F33.7°C 108.3°F42.4°C 78.1°F25.6°C 90.6°F32.6°C
Dew Point 77.3°F25.2°C 84.5°F29.2°C 70.1°F21.2°C 76.7°F24.8°C
Winds 6.0 mph NW9.7 kmh NW 22.1 mph SW35.6 kmh SW - 3.4 mph 5.5 kmh
Wind Gusts 11.4 mph18.3 kmh 28.2 mph45.4 kmh - -
Humidity 61% 77% 47% 65%
Pressure 29.82 in1009.8 mb 29.91 in1012.9 mb 29.82 in1009.8 mb -
Precipitation - 0.20 in5.1 mm - -
Hour Temp Dew Point Humidity Winds Wind Gusts Pressure Precip Precip Rate Daily Precip Total
06:10 PM 92.7°F33.7°C 77.3°F25.2°C 61% 6.0 mph NW9.7 kmh NW 11.4 mph18.3 kmh 29.82 in1009.8 mb 0.00 in0.0 mm 0.00 in0.0 mm 0.20 in5.1 mm
06:05 PM 92.5°F33.6°C 77.6°F25.3°C 62% 4.5 mph NW7.2 kmh NW 9.8 mph15.8 kmh 29.82 in1009.8 mb 0.00 in0.0 mm 0.00 in0.0 mm 0.20 in5.1 mm
06:00 PM 92.5°F33.6°C 77.2°F25.1°C 61% 6.0 mph NW9.7 kmh NW 9.8 mph15.8 kmh 29.83 in1010.2 mb 0.00 in0.0 mm 0.00 in0.0 mm 0.20 in5.1 mm
05:55 PM 92.5°F33.6°C 77.6°F25.3°C 62% 4.5 mph NW7.2 kmh NW 9.8 mph15.8 kmh 29.82 in1009.8 mb 0.00 in0.0 mm 0.00 in0.0 mm 0.20 in5.1 mm
05:50 PM 92.3°F33.5°C 77.0°F25.0°C 61% 6.0 mph NW9.7 kmh NW 12.1 mph19.5 kmh 29.82 in1009.8 mb 0.00 in0.0 mm 0.00 in0.0 mm 0.20 in5.1 mm
05:45 PM 92.3°F33.5°C 77.0°F25.0°C 61% 4.5 mph WNW7.2 kmh WNW 12.1 mph19.5 kmh 29.82 in1009.8 mb 0.00 in0.0 mm 0.00 in0.0 mm 0.20 in5.1 mm
05:40 PM 91.9°F33.3°C 77.1°F25.1°C 62% 9.2 mph NW14.8 kmh NW 12.1 mph19.5 kmh 29.83 in1010.2 mb 0.00 in0.0 mm 0.00 in0.0 mm 0.20 in5.1 mm
05:35 PM 91.9°F33.3°C 77.1°F25.1°C 62% 6.0 mph NW9.7 kmh NW 11.4 mph18.3 kmh 29.82 in1009.8 mb 0.00 in0.0 mm 0.00 in0.0 mm 0.20 in5.1 mm
05:30 PM 91.8°F33.2°C 76.5°F24.7°C 61% 6.0 mph NW9.7 kmh NW 12.1 mph19.5 kmh 29.83 in1010.2 mb 0.00 in0.0 mm 0.00 in0.0 mm 0.20 in5.1 mm
05:25 PM 91.8°F33.2°C 76.5°F24.7°C 61% 7.6 mph NW12.2 kmh NW 12.1 mph19.5 kmh 29.83 in1010.2 mb 0.00 in0.0 mm 0.00 in0.0 mm 0.20 in5.1 mm
05:20 PM 91.8°F33.2°C 76.5°F24.7°C 61% 6.0 mph NW9.7 kmh NW 12.1 mph19.5 kmh 29.83 in1010.2 mb 0.00 in0.0 mm 0.00 in0.0 mm 0.20 in5.1 mm
05:15 PM 91.9°F33.3°C 76.6°F24.8°C 61% 5.4 mph NW8.7 kmh NW 13.0 mph20.9 kmh 29.83 in1010.2 mb 0.00 in0.0 mm 0.00 in0.0 mm 0.20 in5.1 mm
05:10 PM 92.1°F33.4°C 76.8°F24.9°C 61% 8.3 mph NW13.4 kmh NW 13.0 mph20.9 kmh 29.84 in1010.5 mb 0.00 in0.0 mm 0.00 in0.0 mm 0.20 in5.1 mm
05:05 PM 92.3°F33.5°C 77.0°F25.0°C 61% 8.3 mph NW13.4 kmh NW 12.1 mph19.5 kmh 29.83 in1010.2 mb 0.00 in0.0 mm 0.00 in0.0 mm 0.20 in5.1 mm
05:00 PM 92.5°F33.6°C 77.2°F25.1°C 61% 5.4 mph NW8.7 kmh NW 12.1 mph19.5 kmh 29.83 in1010.2 mb 0.00 in0.0 mm 0.00 in0.0 mm 0.20 in5.1 mm
04:55 PM 92.7°F33.7°C 77.3°F25.2°C 61% 6.0 mph NW9.7 kmh NW 11.4 mph18.3 kmh 29.83 in1010.2 mb 0.00 in0.0 mm 0.00 in0.0 mm 0.20 in5.1 mm
04:50 PM 92.7°F33.7°C 77.3°F25.2°C 61% 6.9 mph WNW11.1 kmh WNW 11.4 mph18.3 kmh 29.83 in1010.2 mb 0.00 in0.0 mm 0.00 in0.0 mm 0.20 in5.1 mm
04:45 PM 92.8°F33.8°C 77.5°F25.3°C 61% 6.0 mph NW9.7 kmh NW 9.8 mph15.8 kmh 29.83 in1010.2 mb 0.00 in0.0 mm 0.00 in0.0 mm 0.20 in5.1 mm
04:40 PM 92.8°F33.8°C 77.5°F25.3°C 61% 4.5 mph NW7.2 kmh NW 9.8 mph15.8 kmh 29.84 in1010.5 mb 0.00 in0.0 mm 0.00 in0.0 mm 0.20 in5.1 mm
04:35 PM 92.8°F33.8°C 77.5°F25.3°C 61% 3.1 mph NNW5.0 kmh NNW 9.2 mph14.8 kmh 29.84 in1010.5 mb 0.00 in0.0 mm 0.00 in0.0 mm 0.20 in5.1 mm
04:30 PM 93.0°F33.9°C 77.7°F25.4°C 61% 5.4 mph NNW8.7 kmh NNW 9.2 mph14.8 kmh 29.84 in1010.5 mb 0.00 in0.0 mm 0.00 in0.0 mm 0.20 in5.1 mm
04:25 PM 93.2°F34.0°C 77.8°F25.4°C 61% 4.5 mph N7.2 kmh N 9.2 mph14.8 kmh 29.84 in1010.5 mb 0.00 in0.0 mm 0.00 in0.0 mm 0.20 in5.1 mm
04:20 PM 93.4°F34.1°C 78.0°F25.6°C 61% 6.0 mph N9.7 kmh N 9.2 mph14.8 kmh 29.84 in1010.5 mb 0.00 in0.0 mm 0.00 in0.0 mm 0.20 in5.1 mm
04:15 PM 93.6°F34.2°C 78.2°F25.7°C 61% 3.8 mph NNW6.1 kmh NNW 9.8 mph15.8 kmh 29.84 in1010.5 mb 0.00 in0.0 mm 0.00 in0.0 mm 0.20 in5.1 mm
04:10 PM 93.7°F34.3°C 77.8°F25.4°C 60% 5.4 mph N8.7 kmh N 9.8 mph15.8 kmh 29.84 in1010.5 mb 0.00 in0.0 mm 0.00 in0.0 mm 0.20 in5.1 mm
04:05 PM 93.9°F34.4°C 78.0°F25.6°C 60% 7.6 mph N12.2 kmh N 10.7 mph17.2 kmh 29.84 in1010.5 mb 0.00 in0.0 mm 0.00 in0.0 mm 0.20 in5.1 mm
04:00 PM 94.1°F34.5°C 78.2°F25.7°C 60% 6.0 mph N9.7 kmh N 10.7 mph17.2 kmh 29.85 in1010.8 mb 0.00 in0.0 mm 0.00 in0.0 mm 0.20 in5.1 mm
03:55 PM 94.5°F34.7°C 78.0°F25.6°C 59% 3.8 mph N6.1 kmh N 10.7 mph17.2 kmh 29.85 in1010.8 mb 0.00 in0.0 mm 0.00 in0.0 mm 0.20 in5.1 mm
03:50 PM 95.0°F35.0°C 78.5°F25.8°C 59% 5.4 mph N8.7 kmh N 12.1 mph19.5 kmh 29.85 in1010.8 mb 0.00 in0.0 mm 0.00 in0.0 mm 0.20 in5.1 mm
03:45 PM 95.5°F35.3°C 78.5°F25.8°C 58% 7.6 mph N12.2 kmh N 12.1 mph19.5 kmh 29.85 in1010.8 mb 0.00 in0.0 mm 0.00 in0.0 mm 0.20 in5.1 mm
03:40 PM 96.3°F35.7°C 78.6°F25.9°C 57% 5.4 mph N8.7 kmh N 11.4 mph18.3 kmh 29.86 in1011.2 mb 0.00 in0.0 mm 0.00 in0.0 mm 0.20 in5.1 mm
03:35 PM 97.2°F36.2°C 78.9°F26.1°C 56% 5.4 mph N8.7 kmh N 15.9 mph25.6 kmh 29.85 in1010.8 mb 0.00 in0.0 mm 0.00 in0.0 mm 0.20 in5.1 mm
03:30 PM 98.4°F36.9°C 79.0°F26.1°C 54% 8.3 mph N13.4 kmh N 15.9 mph25.6 kmh 29.86 in1011.2 mb 0.00 in0.0 mm 0.00 in0.0 mm 0.20 in5.1 mm
03:25 PM 100.0°F37.8°C 79.9°F26.6°C 53% 7.6 mph N12.2 kmh N 9.8 mph15.8 kmh 29.86 in1011.2 mb 0.00 in0.0 mm 0.00 in0.0 mm 0.20 in5.1 mm
03:20 PM 101.1°F38.4°C 80.3°F26.8°C 52% 6.0 mph N9.7 kmh N 9.8 mph15.8 kmh 29.86 in1011.2 mb 0.00 in0.0 mm 0.00 in0.0 mm 0.20 in5.1 mm
03:15 PM 102.4°F39.1°C 80.9°F27.2°C 51% 5.4 mph W8.7 kmh W 8.3 mph13.4 kmh 29.86 in1011.2 mb 0.00 in0.0 mm 0.00 in0.0 mm 0.20 in5.1 mm
03:10 PM 103.8°F39.9°C 81.6°F27.6°C 50% 2.2 mph WSW3.5 kmh WSW 8.3 mph13.4 kmh 29.86 in1011.2 mb 0.00 in0.0 mm 0.00 in0.0 mm 0.20 in5.1 mm
03:05 PM 105.1°F40.6°C 82.2°F27.9°C 49% 6.0 mph W9.7 kmh W 8.3 mph13.4 kmh 29.86 in1011.2 mb 0.00 in0.0 mm 0.00 in0.0 mm 0.20 in5.1 mm
03:00 PM 104.5°F40.3°C 82.9°F28.3°C 51% 5.4 mph WSW8.7 kmh WSW 8.3 mph13.4 kmh 29.86 in1011.2 mb 0.00 in0.0 mm 0.00 in0.0 mm 0.20 in5.1 mm
02:55 PM 103.8°F39.9°C 82.8°F28.2°C 52% 2.2 mph WSW3.5 kmh WSW 7.6 mph12.2 kmh 29.86 in1011.2 mb 0.00 in0.0 mm 0.00 in0.0 mm 0.20 in5.1 mm
02:50 PM 102.6°F39.2°C 82.3°F27.9°C 53% 3.8 mph SW6.1 kmh SW 7.6 mph12.2 kmh 29.86 in1011.2 mb 0.00 in0.0 mm 0.00 in0.0 mm 0.20 in5.1 mm
02:45 PM 101.1°F38.4°C 81.5°F27.5°C 54% 3.8 mph WSW6.1 kmh WSW 8.3 mph13.4 kmh 29.86 in1011.2 mb 0.00 in0.0 mm 0.00 in0.0 mm 0.20 in5.1 mm
02:40 PM 101.1°F38.4°C 81.5°F27.5°C 54% 5.4 mph W8.7 kmh W 8.3 mph13.4 kmh 29.86 in1011.2 mb 0.00 in0.0 mm 0.00 in0.0 mm 0.20 in5.1 mm
02:35 PM 101.1°F38.4°C 81.5°F27.5°C 54% 3.8 mph WNW6.1 kmh WNW 7.6 mph12.2 kmh 29.86 in1011.2 mb 0.00 in0.0 mm 0.00 in0.0 mm 0.20 in5.1 mm
02:30 PM 101.5°F38.6°C 81.3°F27.4°C 53% 3.8 mph WNW6.1 kmh WNW 6.9 mph11.1 kmh 29.86 in1011.2 mb 0.00 in0.0 mm 0.00 in0.0 mm 0.20 in5.1 mm
02:25 PM 101.5°F38.6°C 81.3°F27.4°C 53% 2.2 mph WNW3.5 kmh WNW 6.9 mph11.1 kmh 29.86 in1011.2 mb 0.00 in0.0 mm 0.00 in0.0 mm 0.20 in5.1 mm
02:20 PM 102.0°F38.9°C 81.2°F27.3°C 52% 2.2 mph WNW3.5 kmh WNW 8.3 mph13.4 kmh 29.87 in1011.5 mb 0.00 in0.0 mm 0.00 in0.0 mm 0.20 in5.1 mm
02:15 PM 103.8°F39.9°C 81.6°F27.6°C 50% 5.4 mph W8.7 kmh W 8.3 mph13.4 kmh 29.87 in1011.5 mb 0.00 in0.0 mm 0.00 in0.0 mm 0.20 in5.1 mm
02:10 PM 105.6°F40.9°C 82.7°F28.2°C 49% 6.0 mph WNW9.7 kmh WNW 9.8 mph15.8 kmh 29.87 in1011.5 mb 0.00 in0.0 mm 0.00 in0.0 mm 0.20 in5.1 mm
02:05 PM 107.2°F41.8°C 82.8°F28.2°C 47% 6.0 mph WNW9.7 kmh WNW 10.7 mph17.2 kmh 29.87 in1011.5 mb 0.00 in0.0 mm 0.00 in0.0 mm 0.20 in5.1 mm
02:00 PM 107.6°F42.0°C 84.5°F29.2°C 49% 5.4 mph W8.7 kmh W 11.4 mph18.3 kmh 29.87 in1011.5 mb 0.00 in0.0 mm 0.00 in0.0 mm 0.20 in5.1 mm
01:55 PM 106.3°F41.3°C 83.9°F28.8°C 50% 3.8 mph WSW6.1 kmh WSW 11.4 mph18.3 kmh 29.87 in1011.5 mb 0.00 in0.0 mm 0.00 in0.0 mm 0.20 in5.1 mm
01:50 PM 105.4°F40.8°C 83.7°F28.7°C 51% 6.9 mph WSW11.1 kmh WSW 14.5 mph23.3 kmh 29.87 in1011.5 mb 0.00 in0.0 mm 0.00 in0.0 mm 0.20 in5.1 mm
01:45 PM 105.1°F40.6°C 82.8°F28.2°C 50% 6.9 mph SW11.1 kmh SW 14.5 mph23.3 kmh 29.87 in1011.5 mb 0.00 in0.0 mm 0.00 in0.0 mm 0.20 in5.1 mm
01:40 PM 105.4°F40.8°C 83.1°F28.4°C 50% 9.2 mph WSW14.8 kmh WSW 12.1 mph19.5 kmh 29.87 in1011.5 mb 0.00 in0.0 mm 0.00 in0.0 mm 0.20 in5.1 mm
01:35 PM 105.6°F40.9°C 83.3°F28.5°C 50% 8.3 mph W13.4 kmh W 12.1 mph19.5 kmh 29.87 in1011.5 mb 0.00 in0.0 mm 0.00 in0.0 mm 0.20 in5.1 mm
01:30 PM 105.8°F41.0°C 82.8°F28.2°C 49% 6.9 mph WSW11.1 kmh WSW 9.8 mph15.8 kmh 29.88 in1011.9 mb 0.01 in0.3 mm 0.00 in0.0 mm 0.20 in5.1 mm
01:25 PM 105.8°F41.0°C 82.2°F27.9°C 48% 5.4 mph WSW8.7 kmh WSW 10.7 mph17.2 kmh 29.88 in1011.9 mb 0.04 in1.0 mm 0.00 in0.0 mm 0.20 in5.1 mm
01:20 PM 105.8°F41.0°C 82.8°F28.2°C 49% 7.6 mph WSW12.2 kmh WSW 10.7 mph17.2 kmh 29.88 in1011.9 mb 0.13 in3.3 mm 0.00 in0.0 mm 0.20 in5.1 mm
01:15 PM 105.3°F40.7°C 82.9°F28.3°C 50% 4.5 mph W7.2 kmh W 9.8 mph15.8 kmh 29.88 in1011.9 mb 0.20 in5.1 mm 0.00 in0.0 mm 0.20 in5.1 mm
01:10 PM 104.0°F40.0°C 83.0°F28.3°C 52% 4.5 mph W7.2 kmh W 9.8 mph15.8 kmh 29.89 in1012.2 mb 0.20 in5.1 mm 0.00 in0.0 mm 0.20 in5.1 mm
01:05 PM 101.3°F38.5°C 82.8°F28.2°C 56% 5.4 mph WSW8.7 kmh WSW 9.2 mph14.8 kmh 29.89 in1012.2 mb 0.20 in5.1 mm 0.00 in0.0 mm 0.20 in5.1 mm
01:00 PM 98.4°F36.9°C 81.7°F27.6°C 59% 3.1 mph WNW5.0 kmh WNW 10.7 mph17.2 kmh 29.89 in1012.2 mb 0.20 in5.1 mm 0.00 in0.0 mm 0.20 in5.1 mm
12:55 PM 95.9°F35.5°C 81.4°F27.4°C 63% 6.0 mph NW9.7 kmh NW 11.4 mph18.3 kmh 29.89 in1012.2 mb 0.20 in5.1 mm 0.00 in0.0 mm 0.20 in5.1 mm
12:50 PM 92.8°F33.8°C 79.9°F26.6°C 66% 4.5 mph W7.2 kmh W 21.3 mph34.3 kmh 29.90 in1012.5 mb 0.20 in5.1 mm 0.00 in0.0 mm 0.20 in5.1 mm
12:45 PM 90.7°F32.6°C 78.3°F25.7°C 67% 8.3 mph W13.4 kmh W 21.3 mph34.3 kmh 29.89 in1012.2 mb 0.20 in5.1 mm 0.00 in0.0 mm 0.20 in5.1 mm
12:40 PM 90.5°F32.5°C 78.1°F25.6°C 67% 13.6 mph W21.9 kmh W 21.3 mph34.3 kmh 29.90 in1012.5 mb 0.20 in5.1 mm 0.00 in0.0 mm 0.20 in5.1 mm
12:35 PM 90.5°F32.5°C 77.2°F25.1°C 65% 14.5 mph WSW23.3 kmh WSW 21.3 mph34.3 kmh 29.90 in1012.5 mb 0.20 in5.1 mm 0.12 in3.0 mm 0.20 in5.1 mm
12:30 PM 91.6°F33.1°C 76.8°F24.9°C 62% 10.7 mph SW17.2 kmh SW 25.9 mph41.7 kmh 29.91 in1012.9 mb 0.19 in4.8 mm 0.24 in6.1 mm 0.19 in4.8 mm
12:25 PM 93.4°F34.1°C 77.5°F25.3°C 60% 22.1 mph SW35.6 kmh SW 28.2 mph45.4 kmh 29.91 in1012.9 mb 0.17 in4.3 mm 1.32 in33.5 mm 0.17 in4.3 mm
12:20 PM 95.7°F35.4°C 78.1°F25.6°C 57% 19.0 mph SSW30.6 kmh SSW 28.2 mph45.4 kmh 29.91 in1012.9 mb 0.06 in1.5 mm 0.72 in18.3 mm 0.06 in1.5 mm
12:15 PM 98.2°F36.8°C 78.8°F26.0°C 54% 13.6 mph S21.9 kmh S 19.7 mph31.7 kmh 29.91 in1012.9 mb 0.00 in0.0 mm 0.00 in0.0 mm 0.00 in0.0 mm
12:10 PM 101.3°F38.5°C 80.5°F26.9°C 52% 15.9 mph S25.6 kmh S 18.3 mph29.5 kmh 29.91 in1012.9 mb 0.00 in0.0 mm 0.00 in0.0 mm 0.00 in0.0 mm
12:05 PM 104.7°F40.4°C 81.8°F27.7°C 49% 13.0 mph ESE20.9 kmh ESE 17.4 mph28.0 kmh 29.90 in1012.5 mb 0.00 in0.0 mm 0.00 in0.0 mm 0.00 in0.0 mm
12:00 PM 106.3°F41.3°C 83.3°F28.5°C 49% 4.5 mph NE7.2 kmh NE 10.7 mph17.2 kmh 29.90 in1012.5 mb 0.00 in0.0 mm 0.00 in0.0 mm 0.00 in0.0 mm
11:55 AM 105.4°F40.8°C 82.5°F28.1°C 49% 2.2 mph N3.5 kmh N 8.3 mph13.4 kmh 29.90 in1012.5 mb 0.00 in0.0 mm 0.00 in0.0 mm 0.00 in0.0 mm
11:50 AM 106.3°F41.3°C 83.3°F28.5°C 49% 5.4 mph N8.7 kmh N 11.4 mph18.3 kmh 29.90 in1012.5 mb 0.00 in0.0 mm 0.00 in0.0 mm 0.00 in0.0 mm
11:45 AM 106.5°F41.4°C 82.8°F28.2°C 48% 3.8 mph NNW6.1 kmh NNW 11.4 mph18.3 kmh 29.90 in1012.5 mb 0.00 in0.0 mm 0.00 in0.0 mm 0.00 in0.0 mm
11:40 AM 108.1°F42.3°C 83.7°F28.7°C 47% 7.6 mph N12.2 kmh N 10.7 mph17.2 kmh 29.90 in1012.5 mb 0.00 in0.0 mm 0.00 in0.0 mm 0.00 in0.0 mm
11:35 AM 108.3°F42.4°C 83.8°F28.8°C 47% 4.5 mph N7.2 kmh N 10.7 mph17.2 kmh 29.90 in1012.5 mb 0.00 in0.0 mm 0.00 in0.0 mm 0.00 in0.0 mm
11:30 AM 107.4°F41.9°C 83.7°F28.7°C 48% 4.5 mph N7.2 kmh N 9.8 mph15.8 kmh 29.90 in1012.5 mb 0.00 in0.0 mm 0.00 in0.0 mm 0.00 in0.0 mm
11:25 AM 106.2°F41.2°C 83.1°F28.4°C 49% 3.8 mph NNE6.1 kmh NNE 9.8 mph15.8 kmh 29.90 in1012.5 mb 0.00 in0.0 mm 0.00 in0.0 mm 0.00 in0.0 mm
11:20 AM 105.4°F40.8°C 83.1°F28.4°C 50% 3.1 mph NE5.0 kmh NE 8.3 mph13.4 kmh 29.91 in1012.9 mb 0.00 in0.0 mm 0.00 in0.0 mm 0.00 in0.0 mm
11:15 AM 105.1°F40.6°C 82.8°F28.2°C 50% 5.4 mph NE8.7 kmh NE 9.2 mph14.8 kmh 29.91 in1012.9 mb 0.00 in0.0 mm 0.00 in0.0 mm 0.00 in0.0 mm
11:10 AM 105.4°F40.8°C 83.1°F28.4°C 50% 3.8 mph NE6.1 kmh NE 9.2 mph14.8 kmh 29.90 in1012.5 mb 0.00 in0.0 mm 0.00 in0.0 mm 0.00 in0.0 mm
11:05 AM 104.5°F40.3°C 82.9°F28.3°C 51% 3.8 mph NE6.1 kmh NE 8.3 mph13.4 kmh 29.90 in1012.5 mb 0.00 in0.0 mm 0.00 in0.0 mm 0.00 in0.0 mm
11:00 AM 104.2°F40.1°C 82.6°F28.1°C 51% 6.0 mph NE9.7 kmh NE 9.8 mph15.8 kmh 29.91 in1012.9 mb 0.00 in0.0 mm 0.00 in0.0 mm 0.00 in0.0 mm
10:55 AM 104.5°F40.3°C 82.9°F28.3°C 51% 4.5 mph NE7.2 kmh NE 9.8 mph15.8 kmh 29.91 in1012.9 mb 0.00 in0.0 mm 0.00 in0.0 mm 0.00 in0.0 mm
10:50 AM 104.7°F40.4°C 83.1°F28.4°C 51% 3.8 mph NE6.1 kmh NE 9.2 mph14.8 kmh 29.91 in1012.9 mb 0.00 in0.0 mm 0.00 in0.0 mm 0.00 in0.0 mm
10:45 AM 104.5°F40.3°C 82.9°F28.3°C 51% 6.0 mph NE9.7 kmh NE 9.2 mph14.8 kmh 29.91 in1012.9 mb 0.00 in0.0 mm 0.00 in0.0 mm 0.00 in0.0 mm
10:40 AM 104.2°F40.1°C 82.6°F28.1°C 51% 3.1 mph NE5.0 kmh NE 8.3 mph13.4 kmh 29.91 in1012.9 mb 0.00 in0.0 mm 0.00 in0.0 mm 0.00 in0.0 mm
10:35 AM 104.4°F40.2°C 83.3°F28.5°C 52% 3.8 mph NNE6.1 kmh NNE 8.3 mph13.4 kmh 29.91 in1012.9 mb 0.00 in0.0 mm 0.00 in0.0 mm 0.00 in0.0 mm
10:30 AM 104.4°F40.2°C 83.3°F28.5°C 52% 3.1 mph N5.0 kmh N 7.6 mph12.2 kmh 29.91 in1012.9 mb 0.00 in0.0 mm 0.00 in0.0 mm 0.00 in0.0 mm
10:25 AM 103.8°F39.9°C 82.8°F28.2°C 52% 1.6 mph N2.6 kmh N 7.6 mph12.2 kmh 29.91 in1012.9 mb 0.00 in0.0 mm 0.00 in0.0 mm 0.00 in0.0 mm
10:20 AM 103.6°F39.8°C 83.3°F28.5°C 53% 4.5 mph N7.2 kmh N 6.9 mph11.1 kmh 29.91 in1012.9 mb 0.00 in0.0 mm 0.00 in0.0 mm 0.00 in0.0 mm
10:15 AM 103.3°F39.6°C 83.5°F28.6°C 54% 5.4 mph N8.7 kmh N 6.9 mph11.1 kmh 29.91 in1012.9 mb 0.00 in0.0 mm 0.00 in0.0 mm 0.00 in0.0 mm
10:10 AM 102.2°F39.0°C 83.1°F28.4°C 55% 1.6 mph N2.6 kmh N 4.5 mph7.2 kmh 29.91 in1012.9 mb 0.00 in0.0 mm 0.00 in0.0 mm 0.00 in0.0 mm
10:05 AM 101.1°F38.4°C 82.1°F27.8°C 55% 2.2 mph N3.5 kmh N 8.3 mph13.4 kmh 29.91 in1012.9 mb 0.00 in0.0 mm 0.00 in0.0 mm 0.00 in0.0 mm
09:55 AM 100.8°F38.2°C 82.3°F27.9°C 56% 6.9 mph N11.1 kmh N 8.3 mph13.4 kmh 29.90 in1012.5 mb 0.00 in0.0 mm 0.00 in0.0 mm 0.00 in0.0 mm
09:50 AM 100.4°F38.0°C 82.5°F28.1°C 57% 0.7 mph N1.1 kmh N 7.6 mph12.2 kmh 29.90 in1012.5 mb 0.00 in0.0 mm 0.00 in0.0 mm 0.00 in0.0 mm
09:45 AM 99.3°F37.4°C 82.0°F27.8°C 58% 3.8 mph NNW6.1 kmh NNW 7.6 mph12.2 kmh 29.90 in1012.5 mb 0.00 in0.0 mm 0.00 in0.0 mm 0.00 in0.0 mm
09:40 AM 98.6°F37.0°C 81.9°F27.7°C 59% 5.4 mph N8.7 kmh N 7.6 mph12.2 kmh 29.90 in1012.5 mb 0.00 in0.0 mm 0.00 in0.0 mm 0.00 in0.0 mm
09:35 AM 97.7°F36.5°C 81.6°F27.6°C 60% 3.1 mph NNE5.0 kmh NNE 7.6 mph12.2 kmh 29.91 in1012.9 mb 0.00 in0.0 mm 0.00 in0.0 mm 0.00 in0.0 mm
09:30 AM 96.6°F35.9°C 80.5°F26.9°C 60% 2.2 mph N3.5 kmh N 8.3 mph13.4 kmh 29.90 in1012.5 mb 0.00 in0.0 mm 0.00 in0.0 mm 0.00 in0.0 mm
09:25 AM 97.0°F36.1°C 80.9°F27.2°C 60% 3.8 mph N6.1 kmh N 8.3 mph13.4 kmh 29.91 in1012.9 mb 0.00 in0.0 mm 0.00 in0.0 mm 0.00 in0.0 mm
09:20 AM 96.3°F35.7°C 80.2°F26.8°C 60% 2.2 mph N3.5 kmh N 7.6 mph12.2 kmh 29.91 in1012.9 mb 0.00 in0.0 mm 0.00 in0.0 mm 0.00 in0.0 mm
09:15 AM 97.0°F36.1°C 80.4°F26.9°C 59% 3.8 mph N6.1 kmh N 7.6 mph12.2 kmh 29.91 in1012.9 mb 0.00 in0.0 mm 0.00 in0.0 mm 0.00 in0.0 mm
09:10 AM 97.0°F36.1°C 80.9°F27.2°C 60% 4.5 mph N7.2 kmh N 6.9 mph11.1 kmh 29.91 in1012.9 mb 0.00 in0.0 mm 0.00 in0.0 mm 0.00 in0.0 mm
09:05 AM 96.1°F35.6°C 80.5°F26.9°C 61% 3.1 mph N5.0 kmh N 7.6 mph12.2 kmh 29.90 in1012.5 mb 0.00 in0.0 mm 0.00 in0.0 mm 0.00 in0.0 mm
09:00 AM 95.4°F35.2°C 80.4°F26.9°C 62% 3.1 mph NNE5.0 kmh NNE 7.6 mph12.2 kmh 29.91 in1012.9 mb 0.00 in0.0 mm 0.00 in0.0 mm 0.00 in0.0 mm
08:55 AM 95.0°F35.0°C 80.0°F26.7°C 62% 3.8 mph NNE6.1 kmh NNE 6.9 mph11.1 kmh 29.90 in1012.5 mb 0.00 in0.0 mm 0.00 in0.0 mm 0.00 in0.0 mm
08:50 AM 94.5°F34.7°C 80.0°F26.7°C 63% 4.5 mph N7.2 kmh N 6.9 mph11.1 kmh 29.90 in1012.5 mb 0.00 in0.0 mm 0.00 in0.0 mm 0.00 in0.0 mm
08:45 AM 93.7°F34.3°C 79.3°F26.3°C 63% 2.2 mph N3.5 kmh N 6.0 mph9.7 kmh 29.90 in1012.5 mb 0.00 in0.0 mm 0.00 in0.0 mm 0.00 in0.0 mm
08:40 AM 93.0°F33.9°C 79.1°F26.2°C 64% 2.2 mph N3.5 kmh N 5.4 mph8.7 kmh 29.90 in1012.5 mb 0.00 in0.0 mm 0.00 in0.0 mm 0.00 in0.0 mm
08:35 AM 92.3°F33.5°C 78.9°F26.1°C 65% 2.2 mph N3.5 kmh N 5.4 mph8.7 kmh 29.89 in1012.2 mb 0.00 in0.0 mm 0.00 in0.0 mm 0.00 in0.0 mm
08:30 AM 91.2°F32.9°C 78.4°F25.8°C 66% 0.7 mph NE1.1 kmh NE 3.1 mph5.0 kmh 29.89 in1012.2 mb 0.00 in0.0 mm 0.00 in0.0 mm 0.00 in0.0 mm
08:25 AM 90.1°F32.3°C 77.8°F25.4°C 67% Calm Calm 3.8 mph6.1 kmh 29.89 in1012.2 mb 0.00 in0.0 mm 0.00 in0.0 mm 0.00 in0.0 mm
08:20 AM 89.2°F31.8°C 77.4°F25.2°C 68% Calm Calm 5.4 mph8.7 kmh 29.89 in1012.2 mb 0.00 in0.0 mm 0.00 in0.0 mm 0.00 in0.0 mm
08:15 AM 88.5°F31.4°C 76.7°F24.8°C 68% 2.2 mph N3.5 kmh N 5.4 mph8.7 kmh 29.89 in1012.2 mb 0.00 in0.0 mm 0.00 in0.0 mm 0.00 in0.0 mm
08:10 AM 88.2°F31.2°C 76.3°F24.6°C 68% 3.1 mph NNW5.0 kmh NNW 5.4 mph8.7 kmh 29.89 in1012.2 mb 0.00 in0.0 mm 0.00 in0.0 mm 0.00 in0.0 mm
08:05 AM 87.4°F30.8°C 76.5°F24.7°C 70% 0.7 mph NW1.1 kmh NW 5.4 mph8.7 kmh 29.89 in1012.2 mb 0.00 in0.0 mm 0.00 in0.0 mm 0.00 in0.0 mm
08:00 AM 86.7°F30.4°C 75.8°F24.3°C 70% 3.1 mph NW5.0 kmh NW 4.5 mph7.2 kmh 29.88 in1011.9 mb 0.00 in0.0 mm 0.00 in0.0 mm 0.00 in0.0 mm
07:55 AM 85.6°F29.8°C 75.2°F24.0°C 71% 2.2 mph N3.5 kmh N 3.8 mph6.1 kmh 29.88 in1011.9 mb 0.00 in0.0 mm 0.00 in0.0 mm 0.00 in0.0 mm
07:50 AM 84.9°F29.4°C 74.9°F23.8°C 72% Calm Calm -- 29.88 in1011.9 mb 0.00 in0.0 mm 0.00 in0.0 mm 0.00 in0.0 mm
07:45 AM 83.7°F28.7°C 74.1°F23.4°C 73% Calm Calm -- 29.88 in1011.9 mb 0.00 in0.0 mm 0.00 in0.0 mm 0.00 in0.0 mm
07:40 AM 82.8°F28.2°C 73.3°F22.9°C 73% Calm Calm -- 29.88 in1011.9 mb 0.00 in0.0 mm 0.00 in0.0 mm 0.00 in0.0 mm
07:35 AM 82.0°F27.8°C 73.0°F22.8°C 74% Calm Calm -- 29.88 in1011.9 mb 0.00 in0.0 mm 0.00 in0.0 mm 0.00 in0.0 mm
07:30 AM 81.1°F27.3°C 72.5°F22.5°C 75% Calm Calm -- 29.88 in1011.9 mb 0.00 in0.0 mm 0.00 in0.0 mm 0.00 in0.0 mm
07:25 AM 80.4°F26.9°C 71.8°F22.1°C 75% Calm Calm -- 29.87 in1011.5 mb 0.00 in0.0 mm 0.00 in0.0 mm 0.00 in0.0 mm
07:20 AM 79.9°F26.6°C 71.7°F22.1°C 76% Calm Calm -- 29.87 in1011.5 mb 0.00 in0.0 mm 0.00 in0.0 mm 0.00 in0.0 mm
07:15 AM 79.3°F26.3°C 71.2°F21.8°C 76% Calm Calm -- 29.86 in1011.2 mb 0.00 in0.0 mm 0.00 in0.0 mm 0.00 in0.0 mm
07:10 AM 79.0°F26.1°C 70.8°F21.6°C 76% Calm Calm -- 29.87 in1011.5 mb 0.00 in0.0 mm 0.00 in0.0 mm 0.00 in0.0 mm
07:05 AM 78.6°F25.9°C 70.5°F21.4°C 76% Calm Calm -- 29.87 in1011.5 mb 0.00 in0.0 mm 0.00 in0.0 mm 0.00 in0.0 mm
07:00 AM 78.4°F25.8°C 70.7°F21.5°C 77% Calm Calm -- 29.87 in1011.5 mb 0.00 in0.0 mm 0.00 in0.0 mm 0.00 in0.0 mm
06:55 AM 78.3°F25.7°C 70.5°F21.4°C 77% Calm Calm -- 29.86 in1011.2 mb 0.00 in0.0 mm 0.00 in0.0 mm 0.00 in0.0 mm
06:50 AM 78.1°F25.6°C 70.3°F21.3°C 77% Calm Calm -- 29.86 in1011.2 mb 0.00 in0.0 mm 0.00 in0.0 mm 0.00 in0.0 mm
06:45 AM 78.1°F25.6°C 70.3°F21.3°C 77% Calm Calm 1.6 mph2.6 kmh 29.87 in1011.5 mb 0.00 in0.0 mm 0.00 in0.0 mm 0.00 in0.0 mm
06:40 AM 78.3°F25.7°C 70.5°F21.4°C 77% Calm Calm 1.6 mph2.6 kmh 29.86 in1011.2 mb 0.00 in0.0 mm 0.00 in0.0 mm 0.00 in0.0 mm
06:35 AM 78.1°F25.6°C 70.3°F21.3°C 77% Calm Calm 1.6 mph2.6 kmh 29.86 in1011.2 mb 0.00 in0.0 mm 0.00 in0.0 mm 0.00 in0.0 mm
06:30 AM 78.4°F25.8°C 70.7°F21.5°C 77% Calm Calm 2.2 mph3.5 kmh 29.86 in1011.2 mb 0.00 in0.0 mm 0.00 in0.0 mm 0.00 in0.0 mm
06:25 AM 78.3°F25.7°C 70.5°F21.4°C 77% Calm Calm 3.1 mph5.0 kmh 29.86 in1011.2 mb 0.00 in0.0 mm 0.00 in0.0 mm 0.00 in0.0 mm
06:20 AM 78.3°F25.7°C 70.5°F21.4°C 77% 1.6 mph WNW2.6 kmh WNW 3.1 mph5.0 kmh 29.86 in1011.2 mb 0.00 in0.0 mm 0.00 in0.0 mm 0.00 in0.0 mm
06:15 AM 78.3°F25.7°C 70.5°F21.4°C 77% 0.7 mph WSW1.1 kmh WSW 2.2 mph3.5 kmh 29.87 in1011.5 mb 0.00 in0.0 mm 0.00 in0.0 mm 0.00 in0.0 mm
06:10 AM 78.3°F25.7°C 70.1°F21.2°C 76% 1.6 mph SW2.6 kmh SW 2.2 mph3.5 kmh 29.86 in1011.2 mb 0.00 in0.0 mm 0.00 in0.0 mm 0.00 in0.0 mm
06:05 AM 78.4°F25.8°C 70.7°F21.5°C 77% 0.7 mph NW1.1 kmh NW 2.2 mph3.5 kmh 29.86 in1011.2 mb 0.00 in0.0 mm 0.00 in0.0 mm 0.00 in0.0 mm
06:00 AM 78.3°F25.7°C 70.1°F21.2°C 76% Calm Calm 2.2 mph3.5 kmh 29.85 in1010.8 mb 0.00 in0.0 mm 0.00 in0.0 mm 0.00 in0.0 mm
05:55 AM 78.3°F25.7°C 70.1°F21.2°C 76% 0.7 mph SSW1.1 kmh SSW 1.6 mph2.6 kmh 29.85 in1010.8 mb 0.00 in0.0 mm 0.00 in0.0 mm 0.00 in0.0 mm
05:50 AM 78.4°F25.8°C 70.3°F21.3°C 76% Calm Calm 1.6 mph2.6 kmh 29.85 in1010.8 mb 0.00 in0.0 mm 0.00 in0.0 mm 0.00 in0.0 mm
05:45 AM 78.6°F25.9°C 70.5°F21.4°C 76% 0.7 mph S1.1 kmh S 1.6 mph2.6 kmh 29.86 in1011.2 mb 0.00 in0.0 mm 0.00 in0.0 mm 0.00 in0.0 mm
05:40 AM 78.6°F25.9°C 70.5°F21.4°C 76% 0.7 mph SSW1.1 kmh SSW 1.6 mph2.6 kmh 29.85 in1010.8 mb 0.00 in0.0 mm 0.00 in0.0 mm 0.00 in0.0 mm
05:35 AM 78.6°F25.9°C 70.5°F21.4°C 76% Calm Calm -- 29.85 in1010.8 mb 0.00 in0.0 mm 0.00 in0.0 mm 0.00 in0.0 mm
05:30 AM 78.8°F26.0°C 70.6°F21.4°C 76% Calm Calm -- 29.85 in1010.8 mb 0.00 in0.0 mm 0.00 in0.0 mm 0.00 in0.0 mm
05:25 AM 79.0°F26.1°C 70.8°F21.6°C 76% Calm Calm -- 29.85 in1010.8 mb 0.00 in0.0 mm 0.00 in0.0 mm 0.00 in0.0 mm
05:20 AM 79.2°F26.2°C 71.0°F21.7°C 76% Calm Calm -- 29.86 in1011.2 mb 0.00 in0.0 mm 0.00 in0.0 mm 0.00 in0.0 mm
05:15 AM 79.2°F26.2°C 71.0°F21.7°C 76% Calm Calm 0.7 mph1.1 kmh 29.85 in1010.8 mb 0.00 in0.0 mm 0.00 in0.0 mm 0.00 in0.0 mm
05:10 AM 79.0°F26.1°C 70.8°F21.6°C 76% Calm Calm 0.7 mph1.1 kmh 29.85 in1010.8 mb 0.00 in0.0 mm 0.00 in0.0 mm 0.00 in0.0 mm
05:05 AM 79.2°F26.2°C 71.0°F21.7°C 76% Calm Calm 0.7 mph1.1 kmh 29.85 in1010.8 mb 0.00 in0.0 mm 0.00 in0.0 mm 0.00 in0.0 mm
05:00 AM 79.3°F26.3°C 70.8°F21.6°C 75% Calm Calm 0.7 mph1.1 kmh 29.85 in1010.8 mb 0.00 in0.0 mm 0.00 in0.0 mm 0.00 in0.0 mm
04:55 AM 79.5°F26.4°C 71.3°F21.8°C 76% Calm Calm 0.7 mph1.1 kmh 29.85 in1010.8 mb 0.00 in0.0 mm 0.00 in0.0 mm 0.00 in0.0 mm
04:50 AM 79.7°F26.5°C 71.1°F21.7°C 75% Calm Calm 1.6 mph2.6 kmh 29.86 in1011.2 mb 0.00 in0.0 mm 0.00 in0.0 mm 0.00 in0.0 mm
04:45 AM 79.7°F26.5°C 71.1°F21.7°C 75% Calm Calm 1.6 mph2.6 kmh 29.85 in1010.8 mb 0.00 in0.0 mm 0.00 in0.0 mm 0.00 in0.0 mm
04:40 AM 79.7°F26.5°C 71.5°F21.9°C 76% Calm Calm 2.2 mph3.5 kmh 29.86 in1011.2 mb 0.00 in0.0 mm 0.00 in0.0 mm 0.00 in0.0 mm
04:35 AM 79.7°F26.5°C 71.5°F21.9°C 76% 0.7 mph S1.1 kmh S 2.2 mph3.5 kmh 29.85 in1010.8 mb 0.00 in0.0 mm 0.00 in0.0 mm 0.00 in0.0 mm
04:30 AM 79.5°F26.4°C 71.3°F21.8°C 76% 0.7 mph S1.1 kmh S 1.6 mph2.6 kmh 29.85 in1010.8 mb 0.00 in0.0 mm 0.00 in0.0 mm 0.00 in0.0 mm
04:25 AM 79.5°F26.4°C 71.3°F21.8°C 76% 0.7 mph NW1.1 kmh NW 1.6 mph2.6 kmh 29.85 in1010.8 mb 0.00 in0.0 mm 0.00 in0.0 mm 0.00 in0.0 mm
04:20 AM 79.5°F26.4°C 71.3°F21.8°C 76% Calm Calm 1.6 mph2.6 kmh 29.85 in1010.8 mb 0.00 in0.0 mm 0.00 in0.0 mm 0.00 in0.0 mm
04:15 AM 79.5°F26.4°C 71.3°F21.8°C 76% 0.7 mph NW1.1 kmh NW 2.2 mph3.5 kmh 29.85 in1010.8 mb 0.00 in0.0 mm 0.00 in0.0 mm 0.00 in0.0 mm
04:10 AM 79.5°F26.4°C 71.3°F21.8°C 76% 0.7 mph NW1.1 kmh NW 2.2 mph3.5 kmh 29.85 in1010.8 mb 0.00 in0.0 mm 0.00 in0.0 mm 0.00 in0.0 mm
04:05 AM 79.3°F26.3°C 71.2°F21.8°C 76% 0.7 mph WNW1.1 kmh WNW 2.2 mph3.5 kmh 29.85 in1010.8 mb 0.00 in0.0 mm 0.00 in0.0 mm 0.00 in0.0 mm
04:00 AM 79.5°F26.4°C 71.3°F21.8°C 76% 1.6 mph WNW2.6 kmh WNW 2.2 mph3.5 kmh 29.86 in1011.2 mb 0.00 in0.0 mm 0.00 in0.0 mm 0.00 in0.0 mm
03:55 AM 79.7°F26.5°C 71.5°F21.9°C 76% 0.7 mph NW1.1 kmh NW 1.6 mph2.6 kmh 29.85 in1010.8 mb 0.00 in0.0 mm 0.00 in0.0 mm 0.00 in0.0 mm
03:50 AM 79.5°F26.4°C 71.3°F21.8°C 76% Calm Calm -- 29.86 in1011.2 mb 0.00 in0.0 mm 0.00 in0.0 mm 0.00 in0.0 mm
03:45 AM 79.7°F26.5°C 71.5°F21.9°C 76% Calm Calm 1.6 mph2.6 kmh 29.86 in1011.2 mb 0.00 in0.0 mm 0.00 in0.0 mm 0.00 in0.0 mm
03:40 AM 79.9°F26.6°C 71.7°F22.1°C 76% Calm Calm 1.6 mph2.6 kmh 29.86 in1011.2 mb 0.00 in0.0 mm 0.00 in0.0 mm 0.00 in0.0 mm
03:35 AM 80.1°F26.7°C 71.9°F22.2°C 76% 0.7 mph NNE1.1 kmh NNE 1.6 mph2.6 kmh 29.86 in1011.2 mb 0.00 in0.0 mm 0.00 in0.0 mm 0.00 in0.0 mm
03:30 AM 80.1°F26.7°C 71.9°F22.2°C 76% Calm Calm 0.7 mph1.1 kmh 29.86 in1011.2 mb 0.00 in0.0 mm 0.00 in0.0 mm 0.00 in0.0 mm
03:25 AM 80.1°F26.7°C 71.9°F22.2°C 76% Calm Calm 1.6 mph2.6 kmh 29.86 in1011.2 mb 0.00 in0.0 mm 0.00 in0.0 mm 0.00 in0.0 mm
03:20 AM 80.1°F26.7°C 71.9°F22.2°C 76% Calm Calm 1.6 mph2.6 kmh 29.86 in1011.2 mb 0.00 in0.0 mm 0.00 in0.0 mm 0.00 in0.0 mm
03:15 AM 80.2°F26.8°C 72.0°F22.2°C 76% 0.7 mph SSW1.1 kmh SSW 2.2 mph3.5 kmh 29.86 in1011.2 mb 0.00 in0.0 mm 0.00 in0.0 mm 0.00 in0.0 mm
03:10 AM 80.4°F26.9°C 72.2°F22.3°C 76% 0.7 mph SW1.1 kmh SW 2.2 mph3.5 kmh 29.86 in1011.2 mb 0.00 in0.0 mm 0.00 in0.0 mm 0.00 in0.0 mm
03:05 AM 80.4°F26.9°C 72.2°F22.3°C 76% 1.6 mph SW2.6 kmh SW 2.2 mph3.5 kmh 29.86 in1011.2 mb 0.00 in0.0 mm 0.00 in0.0 mm 0.00 in0.0 mm
03:00 AM 80.4°F26.9°C 72.2°F22.3°C 76% 0.7 mph SW1.1 kmh SW 1.6 mph2.6 kmh 29.86 in1011.2 mb 0.00 in0.0 mm 0.00 in0.0 mm 0.00 in0.0 mm
02:55 AM 80.8°F27.1°C 72.6°F22.6°C 76% 0.7 mph SW1.1 kmh SW 1.6 mph2.6 kmh 29.86 in1011.2 mb 0.00 in0.0 mm 0.00 in0.0 mm 0.00 in0.0 mm
02:50 AM 80.8°F27.1°C 72.2°F22.3°C 75% 0.7 mph SW1.1 kmh SW 2.2 mph3.5 kmh 29.86 in1011.2 mb 0.00 in0.0 mm 0.00 in0.0 mm 0.00 in0.0 mm
02:45 AM 80.8°F27.1°C 72.2°F22.3°C 75% 0.7 mph SW1.1 kmh SW 3.8 mph6.1 kmh 29.87 in1011.5 mb 0.00 in0.0 mm 0.00 in0.0 mm 0.00 in0.0 mm
02:40 AM 81.0°F27.2°C 72.3°F22.4°C 75% 1.6 mph SW2.6 kmh SW 3.8 mph6.1 kmh 29.86 in1011.2 mb 0.00 in0.0 mm 0.00 in0.0 mm 0.00 in0.0 mm
02:35 AM 81.1°F27.3°C 72.5°F22.5°C 75% 3.1 mph SW5.0 kmh SW 3.8 mph6.1 kmh 29.87 in1011.5 mb 0.00 in0.0 mm 0.00 in0.0 mm 0.00 in0.0 mm
02:30 AM 81.1°F27.3°C 72.5°F22.5°C 75% 1.6 mph S2.6 kmh S 3.1 mph5.0 kmh 29.87 in1011.5 mb 0.00 in0.0 mm 0.00 in0.0 mm 0.00 in0.0 mm
02:25 AM 81.1°F27.3°C 72.5°F22.5°C 75% 1.6 mph S2.6 kmh S 3.1 mph5.0 kmh 29.88 in1011.9 mb 0.00 in0.0 mm 0.00 in0.0 mm 0.00 in0.0 mm
02:20 AM 81.3°F27.4°C 72.7°F22.6°C 75% 1.6 mph S2.6 kmh S 3.1 mph5.0 kmh 29.87 in1011.5 mb 0.00 in0.0 mm 0.00 in0.0 mm 0.00 in0.0 mm
02:15 AM 81.3°F27.4°C 72.7°F22.6°C 75% 1.6 mph S2.6 kmh S 3.1 mph5.0 kmh 29.87 in1011.5 mb 0.00 in0.0 mm 0.00 in0.0 mm 0.00 in0.0 mm
02:10 AM 81.3°F27.4°C 72.7°F22.6°C 75% 1.6 mph SSW2.6 kmh SSW 3.1 mph5.0 kmh 29.88 in1011.9 mb 0.00 in0.0 mm 0.00 in0.0 mm 0.00 in0.0 mm
02:05 AM 81.5°F27.5°C 72.9°F22.7°C 75% 1.6 mph SSW2.6 kmh SSW 2.2 mph3.5 kmh 29.88 in1011.9 mb 0.00 in0.0 mm 0.00 in0.0 mm 0.00 in0.0 mm
02:00 AM 81.5°F27.5°C 72.9°F22.7°C 75% Calm Calm 2.2 mph3.5 kmh 29.87 in1011.5 mb 0.00 in0.0 mm 0.00 in0.0 mm 0.00 in0.0 mm
01:55 AM 81.5°F27.5°C 72.9°F22.7°C 75% 0.7 mph SSE1.1 kmh SSE 2.2 mph3.5 kmh 29.87 in1011.5 mb 0.00 in0.0 mm 0.00 in0.0 mm 0.00 in0.0 mm
01:50 AM 81.5°F27.5°C 72.9°F22.7°C 75% 0.7 mph S1.1 kmh S 3.8 mph6.1 kmh 29.87 in1011.5 mb 0.00 in0.0 mm 0.00 in0.0 mm 0.00 in0.0 mm
01:45 AM 81.7°F27.6°C 73.0°F22.8°C 75% 1.6 mph S2.6 kmh S 3.8 mph6.1 kmh 29.87 in1011.5 mb 0.00 in0.0 mm 0.00 in0.0 mm 0.00 in0.0 mm
01:40 AM 81.7°F27.6°C 73.0°F22.8°C 75% 2.2 mph S3.5 kmh S 3.8 mph6.1 kmh 29.86 in1011.2 mb 0.00 in0.0 mm 0.00 in0.0 mm 0.00 in0.0 mm
01:35 AM 81.9°F27.7°C 73.2°F22.9°C 75% 2.2 mph S3.5 kmh S 3.8 mph6.1 kmh 29.87 in1011.5 mb 0.00 in0.0 mm 0.00 in0.0 mm 0.00 in0.0 mm
01:30 AM 81.9°F27.7°C 73.2°F22.9°C 75% 2.2 mph S3.5 kmh S 4.5 mph7.2 kmh 29.87 in1011.5 mb 0.00 in0.0 mm 0.00 in0.0 mm 0.00 in0.0 mm
01:25 AM 82.0°F27.8°C 73.4°F23.0°C 75% 3.1 mph S5.0 kmh S 4.5 mph7.2 kmh 29.87 in1011.5 mb 0.00 in0.0 mm 0.00 in0.0 mm 0.00 in0.0 mm
01:20 AM 82.2°F27.9°C 73.6°F23.1°C 75% 2.2 mph SSE3.5 kmh SSE 3.8 mph6.1 kmh 29.87 in1011.5 mb 0.00 in0.0 mm 0.00 in0.0 mm 0.00 in0.0 mm
01:15 AM 82.2°F27.9°C 73.6°F23.1°C 75% 1.6 mph SE2.6 kmh SE 3.8 mph6.1 kmh 29.87 in1011.5 mb 0.00 in0.0 mm 0.00 in0.0 mm 0.00 in0.0 mm
01:10 AM 82.4°F28.0°C 73.7°F23.2°C 75% 2.2 mph E3.5 kmh E 3.8 mph6.1 kmh 29.87 in1011.5 mb 0.00 in0.0 mm 0.00 in0.0 mm 0.00 in0.0 mm
01:05 AM 82.6°F28.1°C 73.9°F23.3°C 75% 1.6 mph E2.6 kmh E 5.4 mph8.7 kmh 29.87 in1011.5 mb 0.00 in0.0 mm 0.00 in0.0 mm 0.00 in0.0 mm
01:00 AM 82.8°F28.2°C 74.1°F23.4°C 75% 2.2 mph ESE3.5 kmh ESE 6.0 mph9.7 kmh 29.87 in1011.5 mb 0.00 in0.0 mm 0.00 in0.0 mm 0.00 in0.0 mm
12:55 AM 83.1°F28.4°C 74.4°F23.6°C 75% 3.8 mph E6.1 kmh E 8.3 mph13.4 kmh 29.87 in1011.5 mb 0.00 in0.0 mm 0.00 in0.0 mm 0.00 in0.0 mm
12:50 AM 83.1°F28.4°C 74.4°F23.6°C 75% 3.1 mph E5.0 kmh E 8.3 mph13.4 kmh 29.87 in1011.5 mb 0.00 in0.0 mm 0.00 in0.0 mm 0.00 in0.0 mm
12:45 AM 83.1°F28.4°C 74.0°F23.3°C 74% 4.5 mph E7.2 kmh E 9.2 mph14.8 kmh 29.87 in1011.5 mb 0.00 in0.0 mm 0.00 in0.0 mm 0.00 in0.0 mm
12:40 AM 83.3°F28.5°C 74.2°F23.4°C 74% 3.8 mph E6.1 kmh E 9.2 mph14.8 kmh 29.88 in1011.9 mb 0.00 in0.0 mm 0.00 in0.0 mm 0.00 in0.0 mm
12:35 AM 83.1°F28.4°C 73.6°F23.1°C 73% 2.2 mph NE3.5 kmh NE 3.8 mph6.1 kmh 29.87 in1011.5 mb 0.00 in0.0 mm 0.00 in0.0 mm 0.00 in0.0 mm
12:30 AM 83.1°F28.4°C 73.6°F23.1°C 73% Calm Calm 1.6 mph2.6 kmh 29.87 in1011.5 mb 0.00 in0.0 mm 0.00 in0.0 mm 0.00 in0.0 mm
12:25 AM 83.1°F28.4°C 73.6°F23.1°C 73% Calm Calm 2.2 mph3.5 kmh 29.87 in1011.5 mb 0.00 in0.0 mm 0.00 in0.0 mm 0.00 in0.0 mm
12:20 AM 83.1°F28.4°C 73.6°F23.1°C 73% 0.7 mph SE1.1 kmh SE 2.2 mph3.5 kmh 29.87 in1011.5 mb 0.00 in0.0 mm 0.00 in0.0 mm 0.00 in0.0 mm
12:15 AM 83.1°F28.4°C 73.6°F23.1°C 73% 1.6 mph SE2.6 kmh SE 3.1 mph5.0 kmh 29.87 in1011.5 mb 0.00 in0.0 mm 0.00 in0.0 mm 0.00 in0.0 mm
12:10 AM 82.9°F28.3°C 73.5°F23.1°C 73% 0.7 mph SE1.1 kmh SE 3.1 mph5.0 kmh 29.86 in1011.2 mb 0.00 in0.0 mm 0.00 in0.0 mm 0.00 in0.0 mm
12:05 AM 82.9°F28.3°C 73.9°F23.3°C 74% 2.2 mph SSE3.5 kmh SSE 3.1 mph5.0 kmh 29.86 in1011.2 mb 0.00 in0.0 mm 0.00 in0.0 mm 0.00 in0.0 mm
12:00 AM 82.8°F28.2°C 73.3°F22.9°C 73% 0.7 mph SW1.1 kmh SW 3.1 mph5.0 kmh 29.86 in1011.2 mb 0.00 in0.0 mm 0.00 in0.0 mm 0.00 in0.0 mm